Odincovo, Russia
Current Conditions -  °F | °C
As of 6:00 PM on Saturday 25 Oct 2014 (Local Time) from UUWW Reporting Station
Clear Clear  
Wind Chill: 25°   Ceiling: Unl
Heat Index: 25°   Visibility: 6mi
Dew Point: 12°   Wind: 2mph
Humidity: 59%   Direction: NA
Pressure: 30.59"   Gusts: NA
Location:  55.67°N, 37.29°E
Report Text: UUWW 251500Z VRB01MPS CAVOK M04/M11 Q1036 24190060 NOSIG
Loading
Personal Weather Stations






























Interactive Weather Map
Tropical Storm Tracking
New forecast layout! Learn more

10-Day Weather Forecast

Advertisements
Track Severe Weather on mobile